Nord Missouri — 3FBX2 — position and weather

sailwx.info

Track history (hours):
 
Tides and Currents Weather Stations Pressure Air Temp Water Temp Dewpoint Dewpoint Depression Visibility Wind Speed Wind Dir Waves Ship Positions

Nord Missouri

Last reported at 2017-Oct-17 15:06 UTC. Time now 2017-Oct-18 20:23 UTC.
Position N 01°12' E 103°34'.

Length 200 m; draft 11.8 m.

Type: Cargo ship. MMSI: 374171000.

Date/timePositionNaut miles runAvg speedWind from/ knotsBaromVisibWave heightAir tempDewpointWater temp
2017-Oct-17 15:06N 01°12' E 103°34'1 2.4
2017-Oct-17 14:38N 01°12' E 103°35'1 2.3
2017-Oct-17 14:21N 01°12' E 103°36'1 2.1
2017-Oct-17 14:00N 01°12' E 103°36'1 2.0
2017-Oct-17 13:30N 01°11' E 103°37'1 2.0
2017-Oct-17 13:00N 01°11' E 103°38'1 1.9
2017-Oct-17 12:30N 01°11' E 103°39'2142.1
2017-Oct-17 12:00N 01°15' E 104°00'1 1.1
2017-Oct-17 11:29N 01°16' E 104°01'1 1.4
2017-Oct-17 11:00N 01°16' E 104°01'1 1.4
2017-Oct-17 10:30N 01°16' E 104°02'1 1.1
2017-Oct-17 10:00N 01°16' E 104°03'1 1.1
2017-Oct-17 09:30N 01°16' E 104°03'1 1.0
2017-Oct-17 08:59N 01°17' E 104°03'0 0.8
2017-Oct-17 08:30N 01°17' E 104°04'1 2.1
2017-Oct-17 07:55N 01°18' E 104°04'0 0.0
2017-Oct-17 07:25N 01°18' E 104°04'4833.3
2017-Oct-17 05:59N 01°23' E 103°16'714.2
2017-Oct-17 05:28N 01°17' E 103°21'712.7
2017-Oct-17 04:56N 01°14' E 103°27'410.5
2017-Oct-17 04:30N 01°13' E 103°32'5 9.5
2017-Oct-17 04:00N 01°12' E 103°36'4 8.1
2017-Oct-17 03:30N 01°11' E 103°40'5 9.0
2017-Oct-17 03:00N 01°09' E 103°44'4 7.3
2017-Oct-17 02:30N 01°10' E 103°47'4 7.6
2017-Oct-17 02:00N 01°12' E 103°51'3 6.9
2017-Oct-17 01:30N 01°13' E 103°54'3 6.5
2017-Oct-17 01:00N 01°14' E 103°57'3 6.1
2017-Oct-17 00:30N 01°15' E 104°00'3 6.1
2017-Oct-17 00:00N 01°16' E 104°03'2 4.2
2017-Oct-16 23:30N 01°18' E 104°04'0 0.2
2017-Oct-16 22:42N 01°18' E 104°04'0 0.3
2017-Oct-16 22:26N 01°18' E 104°04'0 0.4
2017-Oct-16 21:51N 01°18' E 104°04'0 0.4
2017-Oct-16 21:15N 01°18' E 104°04'0 0.6
2017-Oct-16 20:54N 01°18' E 104°04'0 0.4
2017-Oct-16 20:26N 01°18' E 104°04'0 0.5
2017-Oct-16 19:54N 01°18' E 104°04'0 0.1
2017-Oct-16 19:12N 01°18' E 104°04'820.4
2017-Oct-16 18:49N 01°17' E 104°11'0 1.3
2017-Oct-16 18:26N 01°17' E 104°12'1 1.5
2017-Oct-16 17:41N 01°18' E 104°13'1 1.6
2017-Oct-16 17:18N 01°18' E 104°14'1015.1
2017-Oct-16 16:39N 01°18' E 104°04'0 0.3
2017-Oct-16 16:27N 01°18' E 104°04'0 0.0
2017-Oct-16 15:36N 01°18' E 104°04'0 0.0
2017-Oct-16 15:12N 01°18' E 104°04'0 0.0
2017-Oct-16 14:51N 01°18' E 104°04'0 0.1
2017-Oct-16 14:00N 01°18' E 104°04'0 0.1
2017-Oct-16 12:36N 01°18' E 104°04'0 0.0
2017-Oct-16 12:27N 01°18' E 104°04'0 0.0
2017-Oct-16 11:57N 01°18' E 104°04'0 0.0
2017-Oct-16 11:24N 01°18' E 104°04'0 0.0
2017-Oct-16 09:24N 01°18' E 104°04'0 0.1
2017-Oct-16 08:36N 01°18' E 104°03'0 0.6
2017-Oct-16 08:23N 01°18' E 104°04'2 4.9
2017-Oct-16 08:00N 01°18' E 104°05'4 7.3
2017-Oct-16 07:28N 01°17' E 104°09'  
Track history (hours):
 
Tides and Currents Weather Stations Pressure Air Temp Water Temp Dewpoint Dewpoint Depression Visibility Wind Speed Wind Dir Waves Ship Positions

Nord Missouri

Last reported at 2017-Oct-17 15:06 UTC. Time now 2017-Oct-18 20:23 UTC.
Position N 01°12' E 103°34'.

Length 200 m; draft 11.8 m.

Type: Cargo ship. MMSI: 374171000.

Date/timePositionNaut miles runAvg speedWind from/ knotsBaromVisibWave heightAir tempDewpointWater temp
2017-Oct-17 15:06N 01°12' E 103°34'1 2.4
2017-Oct-17 14:38N 01°12' E 103°35'1 2.3
2017-Oct-17 14:21N 01°12' E 103°36'1 2.1
2017-Oct-17 14:00N 01°12' E 103°36'1 2.0
2017-Oct-17 13:30N 01°11' E 103°37'1 2.0
2017-Oct-17 13:00N 01°11' E 103°38'1 1.9
2017-Oct-17 12:30N 01°11' E 103°39'2142.1
2017-Oct-17 12:00N 01°15' E 104°00'1 1.1
2017-Oct-17 11:29N 01°16' E 104°01'1 1.4
2017-Oct-17 11:00N 01°16' E 104°01'1 1.4
2017-Oct-17 10:30N 01°16' E 104°02'1 1.1
2017-Oct-17 10:00N 01°16' E 104°03'1 1.1
2017-Oct-17 09:30N 01°16' E 104°03'1 1.0
2017-Oct-17 08:59N 01°17' E 104°03'0 0.8
2017-Oct-17 08:30N 01°17' E 104°04'1 2.1
2017-Oct-17 07:55N 01°18' E 104°04'0 0.0
2017-Oct-17 07:25N 01°18' E 104°04'4833.3
2017-Oct-17 05:59N 01°23' E 103°16'714.2
2017-Oct-17 05:28N 01°17' E 103°21'712.7
2017-Oct-17 04:56N 01°14' E 103°27'410.5
2017-Oct-17 04:30N 01°13' E 103°32'5 9.5
2017-Oct-17 04:00N 01°12' E 103°36'4 8.1
2017-Oct-17 03:30N 01°11' E 103°40'5 9.0
2017-Oct-17 03:00N 01°09' E 103°44'4 7.3
2017-Oct-17 02:30N 01°10' E 103°47'4 7.6
2017-Oct-17 02:00N 01°12' E 103°51'3 6.9
2017-Oct-17 01:30N 01°13' E 103°54'3 6.5
2017-Oct-17 01:00N 01°14' E 103°57'3 6.1
2017-Oct-17 00:30N 01°15' E 104°00'3 6.1
2017-Oct-17 00:00N 01°16' E 104°03'2 4.2
2017-Oct-16 23:30N 01°18' E 104°04'0 0.2
2017-Oct-16 22:42N 01°18' E 104°04'0 0.3
2017-Oct-16 22:26N 01°18' E 104°04'0 0.4
2017-Oct-16 21:51N 01°18' E 104°04'0 0.4
2017-Oct-16 21:15N 01°18' E 104°04'0 0.6
2017-Oct-16 20:54N 01°18' E 104°04'0 0.4
2017-Oct-16 20:26N 01°18' E 104°04'0 0.5
2017-Oct-16 19:54N 01°18' E 104°04'0 0.1
2017-Oct-16 19:12N 01°18' E 104°04'820.4
2017-Oct-16 18:49N 01°17' E 104°11'0 1.3
2017-Oct-16 18:26N 01°17' E 104°12'1 1.5
2017-Oct-16 17:41N 01°18' E 104°13'1 1.6
2017-Oct-16 17:18N 01°18' E 104°14'1015.1
2017-Oct-16 16:39N 01°18' E 104°04'0 0.3
2017-Oct-16 16:27N 01°18' E 104°04'0 0.0
2017-Oct-16 15:36N 01°18' E 104°04'0 0.0
2017-Oct-16 15:12N 01°18' E 104°04'0 0.0
2017-Oct-16 14:51N 01°18' E 104°04'0 0.1
2017-Oct-16 14:00N 01°18' E 104°04'0 0.1
2017-Oct-16 12:36N 01°18' E 104°04'0 0.0
2017-Oct-16 12:27N 01°18' E 104°04'0 0.0
2017-Oct-16 11:57N 01°18' E 104°04'0 0.0
2017-Oct-16 11:24N 01°18' E 104°04'0 0.0
2017-Oct-16 09:24N 01°18' E 104°04'0 0.1
2017-Oct-16 08:36N 01°18' E 104°03'0 0.6
2017-Oct-16 08:23N 01°18' E 104°04'2 4.9
2017-Oct-16 08:00N 01°18' E 104°05'4 7.3
2017-Oct-16 07:28N 01°17' E 104°09'  

Dump ship's entire track history